Tropical Cyclones
[Index]
Main Index Home Page Stock Weather Photos Extreme Storms Discussion Storm News and Storm Chasing Reports Tropical Cyclones / Hurricanes / Typhoons Weather Data and Links Wild Fires / Bushfires Weather Observation Techniques Weather Picture Catalogue Tornado Pictures and Reports Stock Video Footage and DVDs for sale
Season 1985-1986 Tropical Cyclone ALFRED Track Map
Season 1985-1986 Summaries: [BoM-AU] [JTWC-AU] [JTWC-SIO] [JTWC-SPAC] [JTWC-SH]
<<- Previous TC | JTWC 1985-1986 Season | Next TC ->>

click for intensity scale information  Lat/long Grid: Show Hide

 Date Labels: Show Hide

Joint Typhoon Warning Centre Cyclone Data

Name: ALFRED

03 Mar 1986 18:00 UTC to 09 Mar 1986 18:00 UTC

    date/time    lat    long     hPa   cat  kts
1986-03-03 18   15.8   150.8                  30          
1986-03-04 00   16.3   151.8                  25          
1986-03-04 06   16.5   152.3                  25          
1986-03-04 12   16.5   152.3                  25          
1986-03-04 18   16.5   152.3                  25          
1986-03-05 00   16.5   152.3                  25          
1986-03-05 06   16.5   152.3                  25          
1986-03-05 12   16.5   152.6                  25          
1986-03-05 18   16.4   153.0                  25          
1986-03-06 00   16.4   153.3                  30          
1986-03-06 06   16.4   153.7                  35          
1986-03-06 12   16.5   154.5                  35          
1986-03-06 18   16.6   155.5                  35          
1986-03-07 00   16.7   156.4                  35          
1986-03-07 06   16.7   157.4            1     40          
1986-03-07 12   16.9   158.8            1     40          
1986-03-07 18   17.4   161.0            1     45          
1986-03-08 00   18.5   163.7            1     45          
1986-03-08 06   19.6   166.3            1     45          
1986-03-08 12   20.3   168.6            1     45          
1986-03-08 18   20.9   171.0            1     40          
1986-03-09 00   21.4   173.4            1     40          
1986-03-09 06   21.9   175.9                  35          
1986-03-09 12   22.6   178.4                  35          
1986-03-09 18   23.6   179.1W                 30          
Winds are 1-min average.

Tropical cyclone tracks developed by Michael Bath using data from the Joint Typhoon Warning Centre Best Tracks and Google Maps.


[Australian Severe Weather index] [Copyright Notice] [Email Contacts] [Search This Site] [Privacy Policy]
Document: tropical_cyclone_alfred.htm Updated: 18 September 2016